createdAt,value
2019-03-30T00:00:10.514Z,5.62
2019-03-30T00:01:10.302Z,5.53
2019-03-30T00:02:10.503Z,5.54
2019-03-30T00:03:10.283Z,5.54
2019-03-30T00:04:10.273Z,5.48
2019-03-30T00:05:10.265Z,5.53
2019-03-30T00:06:10.284Z,5.48
2019-03-30T00:07:10.462Z,5.43
2019-03-30T00:08:10.250Z,5.41
2019-03-30T00:09:10.245Z,5.36
2019-03-30T00:10:10.446Z,5.41
2019-03-30T00:11:10.238Z,5.32
2019-03-30T00:12:10.232Z,5.30
2019-03-30T00:13:10.222Z,5.33
2019-03-30T00:14:10.433Z,5.30
2019-03-30T00:15:10.205Z,5.18
2019-03-30T00:16:10.212Z,5.25
2019-03-30T00:17:10.397Z,5.28
2019-03-30T00:18:10.189Z,5.25
2019-03-30T00:19:10.177Z,5.25
2019-03-30T00:20:10.378Z,5.25
2019-03-30T00:21:10.163Z,5.15
2019-03-30T00:22:10.415Z,5.23
2019-03-30T00:23:10.170Z,5.18
2019-03-30T00:24:10.354Z,5.21
2019-03-30T00:25:10.143Z,5.14
2019-03-30T00:26:10.141Z,5.23
2019-03-30T00:27:10.135Z,5.18
2019-03-30T00:28:10.356Z,5.10
2019-03-30T00:29:10.110Z,5.05
2019-03-30T00:30:10.107Z,4.99
2019-03-30T00:31:10.104Z,5.05
2019-03-30T00:32:10.103Z,4.99
2019-03-30T00:33:10.103Z,5.02
2019-03-30T00:34:10.084Z,5.02
2019-03-30T00:35:10.083Z,4.97
2019-03-30T00:36:10.072Z,5.00
2019-03-30T00:37:10.269Z,4.92
2019-03-30T00:38:10.083Z,4.99
2019-03-30T00:39:10.086Z,4.97
2019-03-30T00:40:10.051Z,4.97
2019-03-30T00:41:10.055Z,4.87
2019-03-30T00:42:10.044Z,4.92
2019-03-30T00:43:10.032Z,4.92
2019-03-30T00:44:10.227Z,4.93
2019-03-30T00:45:10.030Z,4.93
2019-03-30T00:46:10.004Z,4.94
2019-03-30T00:47:10.014Z,4.94
2019-03-30T00:48:10.210Z,4.93
2019-03-30T00:49:09.998Z,4.86
2019-03-30T00:50:10.198Z,4.94
2019-03-30T00:51:09.980Z,4.89
2019-03-30T00:52:09.975Z,4.77
2019-03-30T00:53:09.979Z,4.75
2019-03-30T00:54:09.955Z,4.82
2019-03-30T00:55:09.974Z,4.86
2019-03-30T00:56:09.972Z,4.82
2019-03-30T00:57:09.936Z,4.80
2019-03-30T00:58:09.926Z,4.78
2019-03-30T00:59:09.932Z,4.82
2019-03-30T01:00:09.914Z,4.73
2019-03-30T01:01:09.909Z,4.73
2019-03-30T01:02:09.928Z,4.80
2019-03-30T01:03:09.897Z,4.75
2019-03-30T01:04:09.904Z,4.74
2019-03-30T01:05:09.896Z,4.73
2019-03-30T01:06:09.880Z,4.75
2019-03-30T01:07:09.876Z,4.80
2019-03-30T01:08:09.868Z,4.71
2019-03-30T01:09:09.863Z,4.70
2019-03-30T01:10:09.852Z,4.84
2019-03-30T01:11:09.847Z,4.78
2019-03-30T01:12:09.868Z,4.84
2019-03-30T01:13:09.830Z,4.90
2019-03-30T01:14:09.842Z,4.90
2019-03-30T01:15:09.840Z,4.93
2019-03-30T01:16:09.835Z,4.86
2019-03-30T01:17:09.809Z,4.86
2019-03-30T01:18:09.823Z,4.87
2019-03-30T01:19:09.798Z,4.86
2019-03-30T01:20:09.783Z,4.90
2019-03-30T01:21:09.784Z,4.90
2019-03-30T01:22:09.806Z,4.89
2019-03-30T01:23:09.782Z,4.92
2019-03-30T01:24:09.788Z,4.80
2019-03-30T01:25:09.787Z,4.89
2019-03-30T01:26:09.757Z,4.89
2019-03-30T01:27:09.756Z,4.80
2019-03-30T01:28:09.731Z,4.73
2019-03-30T01:29:09.725Z,4.67
2019-03-30T01:30:22.424Z,4.74
2019-03-30T01:31:09.720Z,4.71
2019-03-30T01:32:09.711Z,4.80
2019-03-30T01:33:09.700Z,4.73
2019-03-30T01:34:09.700Z,4.73
2019-03-30T01:35:09.712Z,4.73
2019-03-30T01:36:09.896Z,4.74
2019-03-30T01:37:09.689Z,4.68
2019-03-30T01:38:09.883Z,4.68
2019-03-30T01:39:09.668Z,4.71
2019-03-30T01:40:09.855Z,4.82
2019-03-30T01:41:09.648Z,4.80
2019-03-30T01:42:09.644Z,4.89
2019-03-30T01:43:09.657Z,4.73
2019-03-30T01:44:09.628Z,4.90
2019-03-30T01:45:09.647Z,4.90
2019-03-30T01:46:09.619Z,4.86
2019-03-30T01:47:09.817Z,4.86
2019-03-30T01:48:09.597Z,4.90
2019-03-30T01:49:09.615Z,5.00
2019-03-30T01:50:17.316Z,4.97
2019-03-30T01:51:09.573Z,4.90
2019-03-30T01:52:09.574Z,4.90
2019-03-30T01:53:09.564Z,4.92
2019-03-30T01:54:09.564Z,4.89
2019-03-30T01:55:09.773Z,4.94
2019-03-30T01:56:09.560Z,4.86
2019-03-30T01:57:09.550Z,4.73
2019-03-30T01:58:09.530Z,4.78
2019-03-30T01:59:09.525Z,4.80
2019-03-30T02:00:09.549Z,4.66
2019-03-30T02:01:09.512Z,4.74
2019-03-30T02:02:09.730Z,4.80
2019-03-30T02:03:09.500Z,4.73
2019-03-30T02:04:09.493Z,4.59
2019-03-30T02:05:09.483Z,4.60
2019-03-30T02:06:09.480Z,4.59
2019-03-30T02:07:09.480Z,4.62
2019-03-30T02:08:09.493Z,4.58
2019-03-30T02:09:09.471Z,4.60
2019-03-30T02:10:09.657Z,4.62
2019-03-30T02:11:09.445Z,4.56
2019-03-30T02:12:09.660Z,4.68
2019-03-30T02:13:09.453Z,4.58
2019-03-30T02:14:09.444Z,4.67
2019-03-30T02:15:09.419Z,4.71
2019-03-30T02:16:09.414Z,4.77
2019-03-30T02:17:09.406Z,4.67
2019-03-30T02:18:09.399Z,4.68
2019-03-30T02:19:09.398Z,4.59
2019-03-30T02:20:09.388Z,4.49
2019-03-30T02:21:09.372Z,4.53
2019-03-30T02:22:09.384Z,4.48
2019-03-30T02:23:09.363Z,4.40
2019-03-30T02:24:09.354Z,4.34
2019-03-30T02:25:09.362Z,4.26
2019-03-30T02:26:09.369Z,4.28
2019-03-30T02:27:09.330Z,4.26
2019-03-30T02:28:09.330Z,4.23
2019-03-30T02:29:09.339Z,4.34
2019-03-30T02:30:09.322Z,4.30
2019-03-30T02:31:09.334Z,4.32
2019-03-30T02:32:09.313Z,4.34
2019-03-30T02:33:09.306Z,4.40
2019-03-30T02:34:09.302Z,4.34
2019-03-30T02:35:09.284Z,4.37
2019-03-30T02:36:09.291Z,4.37
2019-03-30T02:37:09.278Z,4.32
2019-03-30T02:38:09.261Z,4.38
2019-03-30T02:39:09.269Z,4.23
2019-03-30T02:40:09.245Z,4.24
2019-03-30T02:41:09.243Z,4.19
2019-03-30T02:42:09.475Z,4.31
2019-03-30T02:43:09.239Z,4.19
2019-03-30T02:44:09.228Z,4.22
2019-03-30T02:45:09.213Z,4.16
2019-03-30T02:46:09.209Z,4.16
2019-03-30T02:47:09.425Z,4.12
2019-03-30T02:48:09.395Z,4.06
2019-03-30T02:49:09.409Z,4.02
2019-03-30T02:50:09.194Z,4.05
2019-03-30T02:51:09.166Z,3.96
2019-03-30T02:52:09.169Z,4.05
2019-03-30T02:53:09.169Z,4.06
2019-03-30T02:54:09.167Z,4.01
2019-03-30T02:55:12.588Z,4.04
2019-03-30T02:56:09.130Z,4.17
2019-03-30T02:57:09.128Z,4.13
2019-03-30T02:58:09.138Z,4.08
2019-03-30T02:59:09.133Z,4.10
2019-03-30T03:00:09.315Z,4.06
2019-03-30T03:01:09.103Z,4.10
2019-03-30T03:02:09.090Z,4.14
2019-03-30T03:03:09.083Z,4.16
2019-03-30T03:04:09.085Z,4.20
2019-03-30T03:05:09.083Z,4.20
2019-03-30T03:06:09.268Z,4.22
2019-03-30T03:07:09.074Z,4.19
2019-03-30T03:08:09.268Z,4.24
2019-03-30T03:09:09.062Z,4.23
2019-03-30T03:10:09.052Z,4.22
2019-03-30T03:11:09.136Z,4.10
2019-03-30T03:12:09.033Z,4.13
2019-03-30T03:13:09.022Z,4.16
2019-03-30T03:14:09.009Z,4.17
2019-03-30T03:15:09.002Z,4.12
2019-03-30T03:16:09.006Z,4.16
2019-03-30T03:17:08.995Z,4.06
2019-03-30T03:18:08.995Z,4.10
2019-03-30T03:19:08.997Z,3.99
2019-03-30T03:20:08.977Z,4.02
2019-03-30T03:21:09.098Z,3.96
2019-03-30T03:22:08.947Z,3.88
2019-03-30T03:23:08.946Z,3.94
2019-03-30T03:24:08.934Z,3.88
2019-03-30T03:25:08.934Z,3.91
2019-03-30T03:26:09.136Z,3.88
2019-03-30T03:27:08.920Z,3.87
2019-03-30T03:28:08.931Z,3.95
2019-03-30T03:29:08.901Z,3.86
2019-03-30T03:30:09.101Z,3.91
2019-03-30T03:31:08.887Z,3.94
2019-03-30T03:32:08.878Z,3.91
2019-03-30T03:33:09.080Z,3.92
2019-03-30T03:34:08.880Z,3.91
2019-03-30T03:35:08.862Z,3.83
2019-03-30T03:36:08.898Z,3.84
2019-03-30T03:37:09.066Z,3.77
2019-03-30T03:38:08.841Z,3.77
2019-03-30T03:39:08.847Z,3.78
2019-03-30T03:40:08.867Z,3.78
2019-03-30T03:41:08.817Z,3.74
2019-03-30T03:42:08.815Z,3.80
2019-03-30T03:43:08.819Z,3.68
2019-03-30T03:44:08.815Z,3.74
2019-03-30T03:45:08.801Z,3.81
2019-03-30T03:46:08.788Z,3.83
2019-03-30T03:47:08.778Z,3.92
2019-03-30T03:48:08.783Z,3.91
2019-03-30T03:49:08.784Z,3.87
2019-03-30T03:50:08.769Z,3.88
2019-03-30T03:51:25.092Z,3.95
2019-03-30T03:52:08.750Z,3.87
2019-03-30T03:53:08.739Z,4.04
2019-03-30T03:54:08.746Z,4.01
2019-03-30T03:55:08.917Z,4.01
2019-03-30T03:56:08.715Z,4.04
2019-03-30T03:57:08.704Z,3.98
2019-03-30T03:58:08.914Z,3.95
2019-03-30T03:59:08.687Z,3.87
2019-03-30T04:00:08.883Z,3.86
2019-03-30T04:01:08.688Z,3.80
2019-03-30T04:02:08.677Z,3.78
2019-03-30T04:03:08.662Z,3.74
2019-03-30T04:04:08.658Z,3.74
2019-03-30T04:05:08.660Z,3.74
2019-03-30T04:06:08.864Z,3.74
2019-03-30T04:07:08.640Z,3.65
2019-03-30T04:08:08.825Z,3.80
2019-03-30T04:09:08.612Z,3.74
2019-03-30T04:10:08.634Z,3.74
2019-03-30T04:11:08.627Z,3.78
2019-03-30T04:12:08.616Z,3.80
2019-03-30T04:13:08.594Z,3.81
2019-03-30T04:14:08.795Z,3.84
2019-03-30T04:15:08.637Z,3.78
2019-03-30T04:16:08.573Z,3.81
2019-03-30T04:17:08.588Z,3.84
2019-03-30T04:18:08.556Z,3.84
2019-03-30T04:19:08.544Z,3.86
2019-03-30T04:20:08.549Z,3.77
2019-03-30T04:21:08.733Z,3.80
2019-03-30T04:22:08.529Z,3.80
2019-03-30T04:23:08.733Z,3.80
2019-03-30T04:24:08.507Z,3.69
2019-03-30T04:25:08.510Z,3.74
2019-03-30T04:26:08.707Z,3.77
2019-03-30T04:27:08.525Z,3.70
2019-03-30T04:28:08.488Z,3.69
2019-03-30T04:29:08.476Z,3.55
2019-03-30T04:30:08.461Z,3.55
2019-03-30T04:31:08.465Z,3.65
2019-03-30T04:32:08.455Z,3.65
2019-03-30T04:33:08.656Z,3.56
2019-03-30T04:34:08.443Z,3.58
2019-03-30T04:35:08.432Z,3.58
2019-03-30T04:36:08.625Z,3.58
2019-03-30T04:37:08.447Z,3.56
2019-03-30T04:38:08.407Z,3.59
2019-03-30T04:39:08.417Z,3.56
2019-03-30T04:40:08.408Z,3.60
2019-03-30T04:41:08.393Z,3.51
2019-03-30T04:42:08.376Z,3.59
2019-03-30T04:43:08.577Z,3.55
2019-03-30T04:44:08.367Z,3.51
2019-03-30T04:45:08.365Z,3.58
2019-03-30T04:46:08.554Z,3.56
2019-03-30T04:47:08.341Z,3.58
2019-03-30T04:48:08.332Z,3.59
2019-03-30T04:49:08.365Z,3.55
2019-03-30T04:50:08.334Z,3.60
2019-03-30T04:51:08.536Z,3.56
2019-03-30T04:52:08.521Z,3.53
2019-03-30T04:53:08.293Z,3.55
2019-03-30T04:54:08.304Z,3.58
2019-03-30T04:55:08.294Z,3.59
2019-03-30T04:56:08.270Z,3.60
2019-03-30T04:57:08.268Z,3.58
2019-03-30T04:58:09.370Z,3.62
2019-03-30T04:59:08.267Z,3.55
2019-03-30T05:00:08.272Z,3.59
2019-03-30T05:01:08.241Z,3.60
2019-03-30T05:02:08.233Z,3.59
2019-03-30T05:03:08.246Z,3.59
2019-03-30T05:04:08.250Z,3.55
2019-03-30T05:05:08.208Z,3.55
2019-03-30T05:06:08.201Z,3.51
2019-03-30T05:07:08.227Z,3.59
2019-03-30T05:08:08.197Z,3.56
2019-03-30T05:09:08.399Z,3.53
2019-03-30T05:10:08.182Z,3.51
2019-03-30T05:11:08.170Z,3.44
2019-03-30T05:12:08.169Z,3.56
2019-03-30T05:13:08.146Z,3.58
2019-03-30T05:14:08.153Z,3.58
2019-03-30T05:15:08.345Z,3.56
2019-03-30T05:16:08.143Z,3.51
2019-03-30T05:17:08.126Z,3.51
2019-03-30T05:18:08.112Z,3.56
2019-03-30T05:19:08.130Z,3.47
2019-03-30T05:20:08.096Z,3.53
2019-03-30T05:21:08.294Z,3.56
2019-03-30T05:22:12.787Z,3.51
2019-03-30T05:23:08.102Z,3.51
2019-03-30T05:24:08.279Z,3.55
2019-03-30T05:25:08.262Z,3.56
2019-03-30T05:26:08.262Z,3.58
2019-03-30T05:27:08.050Z,3.60
2019-03-30T05:28:08.249Z,3.59
2019-03-30T05:29:08.031Z,3.60
2019-03-30T05:30:08.024Z,3.53
2019-03-30T05:31:08.017Z,3.55
2019-03-30T05:32:08.004Z,3.56
2019-03-30T05:33:07.996Z,3.59
2019-03-30T05:34:07.990Z,3.53
2019-03-30T05:35:08.204Z,3.56
2019-03-30T05:36:08.179Z,3.66
2019-03-30T05:37:07.962Z,3.78
2019-03-30T05:38:07.964Z,3.65
2019-03-30T05:39:08.160Z,3.70
2019-03-30T05:40:07.944Z,3.74
2019-03-30T05:41:08.138Z,3.77
2019-03-30T05:42:07.938Z,3.77
2019-03-30T05:43:07.925Z,3.76
2019-03-30T05:44:07.914Z,3.86
2019-03-30T05:45:07.939Z,3.74
2019-03-30T05:46:07.905Z,3.81
2019-03-30T05:47:07.902Z,3.91
2019-03-30T05:48:07.900Z,3.87
2019-03-30T05:49:08.096Z,3.92
2019-03-30T05:50:07.899Z,3.98
2019-03-30T05:51:07.873Z,4.02
2019-03-30T05:52:07.872Z,4.08
2019-03-30T05:53:07.880Z,4.13
2019-03-30T05:54:07.874Z,4.10
2019-03-30T05:55:07.845Z,4.13
2019-03-30T05:56:08.045Z,4.17
2019-03-30T05:57:07.816Z,4.26
2019-03-30T05:58:07.821Z,4.20
2019-03-30T05:59:07.799Z,4.23
2019-03-30T06:00:07.813Z,4.22
2019-03-30T06:01:07.787Z,4.20
2019-03-30T06:02:07.818Z,4.17
2019-03-30T06:03:07.779Z,4.24
2019-03-30T06:04:07.768Z,4.24
2019-03-30T06:05:07.774Z,4.14
2019-03-30T06:06:07.801Z,4.17
2019-03-30T06:07:07.770Z,4.22
2019-03-30T06:08:07.733Z,4.31
2019-03-30T06:09:07.736Z,4.40
2019-03-30T06:10:07.725Z,4.42
2019-03-30T06:11:07.722Z,4.42
2019-03-30T06:12:07.725Z,4.52
2019-03-30T06:13:07.709Z,4.59
2019-03-30T06:14:07.699Z,4.59
2019-03-30T06:15:07.704Z,4.63
2019-03-30T06:16:07.693Z,4.78
2019-03-30T06:17:07.672Z,4.82
2019-03-30T06:18:07.672Z,4.86
2019-03-30T06:19:07.729Z,4.89
2019-03-30T06:20:07.649Z,5.02
2019-03-30T06:21:07.636Z,5.10
2019-03-30T06:22:07.636Z,5.18
2019-03-30T06:23:07.637Z,5.18
2019-03-30T06:24:07.618Z,5.32
2019-03-30T06:25:07.614Z,5.43
2019-03-30T06:26:07.619Z,5.44
2019-03-30T06:27:07.601Z,5.56
2019-03-30T06:28:07.596Z,5.62
2019-03-30T06:29:07.599Z,5.61
2019-03-30T06:30:07.580Z,5.76
2019-03-30T06:31:07.566Z,5.89
2019-03-30T06:32:07.789Z,5.90
2019-03-30T06:33:07.574Z,6.01
2019-03-30T06:34:07.545Z,6.08
2019-03-30T06:35:07.747Z,6.09
2019-03-30T06:36:07.546Z,6.14
2019-03-30T06:37:07.527Z,6.22
2019-03-30T06:38:07.540Z,6.26
2019-03-30T06:39:07.531Z,6.24
2019-03-30T06:40:07.722Z,6.38
2019-03-30T06:41:07.500Z,6.44
2019-03-30T06:42:07.496Z,6.42
2019-03-30T06:43:08.126Z,6.51
2019-03-30T06:44:07.495Z,6.54
2019-03-30T06:45:07.485Z,6.64
2019-03-30T06:46:07.468Z,6.74
2019-03-30T06:47:07.462Z,6.78
2019-03-30T06:48:07.455Z,6.82
2019-03-30T06:49:07.449Z,6.93
2019-03-30T06:50:07.441Z,6.97
2019-03-30T06:51:07.447Z,7.06
2019-03-30T06:52:07.428Z,7.03
2019-03-30T06:53:07.420Z,7.17
2019-03-30T06:54:07.427Z,7.32
2019-03-30T06:55:07.416Z,7.50
2019-03-30T06:56:07.421Z,7.66
2019-03-30T06:57:07.420Z,7.80
2019-03-30T06:58:07.393Z,8.09
2019-03-30T06:59:07.393Z,8.27
2019-03-30T07:00:07.379Z,8.44
2019-03-30T07:01:07.376Z,8.58
2019-03-30T07:02:07.369Z,8.69
2019-03-30T07:03:07.570Z,8.91
2019-03-30T07:04:07.435Z,9.04
2019-03-30T07:05:07.369Z,9.28
2019-03-30T07:06:07.346Z,9.40
2019-03-30T07:07:07.332Z,9.61
2019-03-30T07:08:07.322Z,9.74
2019-03-30T07:09:07.410Z,9.84
2019-03-30T07:10:07.379Z,9.97
2019-03-30T07:11:20.466Z,10.12
2019-03-30T07:12:07.379Z,10.25
2019-03-30T07:13:07.362Z,10.42
2019-03-30T07:14:07.345Z,10.59
2019-03-30T07:15:07.344Z,10.64
2019-03-30T07:16:07.376Z,10.72
2019-03-30T07:17:07.337Z,10.92
2019-03-30T07:18:07.323Z,10.93
2019-03-30T07:19:07.393Z,11.02
2019-03-30T07:20:07.262Z,10.99
2019-03-30T07:21:07.465Z,11.10
2019-03-30T07:22:07.256Z,11.25
2019-03-30T07:23:12.323Z,11.23
2019-03-30T07:24:07.447Z,11.36
2019-03-30T07:25:07.245Z,11.43
2019-03-30T07:26:07.230Z,11.55
2019-03-30T07:27:07.428Z,11.65
2019-03-30T07:28:07.252Z,11.87
2019-03-30T07:29:07.279Z,11.80
2019-03-30T07:30:07.396Z,12.03
2019-03-30T07:31:07.214Z,11.99
2019-03-30T07:32:07.218Z,12.21
2019-03-30T07:33:07.239Z,12.40
2019-03-30T07:34:07.208Z,12.64
2019-03-30T07:35:07.212Z,12.78
2019-03-30T07:36:07.241Z,12.93
2019-03-30T07:37:07.249Z,12.86
2019-03-30T07:38:07.232Z,12.95
2019-03-30T07:39:07.228Z,13.13
2019-03-30T07:40:07.186Z,13.20
2019-03-30T07:41:07.198Z,13.38
2019-03-30T07:42:07.251Z,13.59
2019-03-30T07:43:07.232Z,13.70
2019-03-30T07:44:07.156Z,13.70
2019-03-30T07:45:07.264Z,13.65
2019-03-30T07:46:07.149Z,13.79
2019-03-30T07:47:07.130Z,13.63
2019-03-30T07:48:07.150Z,13.67
2019-03-30T07:49:07.142Z,13.92
2019-03-30T07:50:07.118Z,13.93
2019-03-30T07:51:07.125Z,14.08
2019-03-30T07:52:07.127Z,14.36
2019-03-30T07:53:07.143Z,14.51
2019-03-30T07:54:07.148Z,14.50
2019-03-30T07:55:07.118Z,14.50
2019-03-30T07:56:08.746Z,14.33
2019-03-30T07:57:16.528Z,14.58
2019-03-30T07:58:07.139Z,14.43
2019-03-30T07:59:07.124Z,14.55
2019-03-30T08:00:07.087Z,14.65
2019-03-30T08:01:07.096Z,14.73
2019-03-30T08:02:07.098Z,14.65
2019-03-30T08:03:07.121Z,14.94
2019-03-30T08:04:07.120Z,15.22
2019-03-30T08:05:07.149Z,15.33
2019-03-30T08:06:07.119Z,15.36
2019-03-30T08:07:07.075Z,15.22
2019-03-30T08:08:07.083Z,15.42
2019-03-30T08:09:07.107Z,15.46
2019-03-30T08:10:07.067Z,15.64
2019-03-30T08:11:07.084Z,15.64
2019-03-30T08:12:07.082Z,15.39
2019-03-30T08:13:07.114Z,15.37
2019-03-30T08:14:07.056Z,15.70
2019-03-30T08:15:07.070Z,16.05
2019-03-30T08:16:07.039Z,15.86
2019-03-30T08:17:07.037Z,15.37
2019-03-30T08:18:07.068Z,15.35
2019-03-30T08:19:07.054Z,15.19
2019-03-30T08:20:07.043Z,15.02
2019-03-30T08:21:07.018Z,15.03
2019-03-30T08:22:07.073Z,15.77
2019-03-30T08:23:07.025Z,16.09
2019-03-30T08:24:07.056Z,16.32
2019-03-30T08:25:07.029Z,16.08
2019-03-30T08:26:07.021Z,15.51
2019-03-30T08:27:07.034Z,15.24
2019-03-30T08:28:07.059Z,15.06
2019-03-30T08:29:07.024Z,14.86
2019-03-30T08:30:07.039Z,14.73
2019-03-30T08:31:07.000Z,14.51
2019-03-30T08:32:07.064Z,14.32
2019-03-30T08:33:07.025Z,14.12
2019-03-30T08:34:07.009Z,13.97
2019-03-30T08:35:07.049Z,13.78
2019-03-30T08:36:06.996Z,13.62
2019-03-30T08:37:06.986Z,13.59
2019-03-30T08:38:07.039Z,13.54
2019-03-30T08:39:07.000Z,13.49
2019-03-30T08:40:07.030Z,13.53
2019-03-30T08:41:07.019Z,13.62
2019-03-30T08:42:07.027Z,13.52
2019-03-30T08:43:07.009Z,13.47
2019-03-30T08:44:06.973Z,13.54
2019-03-30T08:45:06.971Z,13.56
2019-03-30T08:46:06.985Z,13.93
2019-03-30T08:47:07.060Z,14.00
2019-03-30T08:48:06.952Z,14.37
2019-03-30T08:49:06.948Z,14.85
2019-03-30T08:50:06.938Z,15.18
2019-03-30T08:51:06.932Z,15.51
2019-03-30T08:52:07.149Z,15.88
2019-03-30T08:53:07.130Z,16.23
2019-03-30T08:54:07.129Z,16.42
2019-03-30T08:55:06.927Z,16.41
2019-03-30T08:56:06.920Z,16.75
2019-03-30T08:57:07.119Z,17.01
2019-03-30T08:58:06.916Z,16.87
2019-03-30T08:59:06.904Z,16.78
2019-03-30T09:00:06.915Z,16.39
2019-03-30T09:01:07.100Z,16.20
2019-03-30T09:02:06.900Z,15.91
2019-03-30T09:03:07.125Z,15.54
2019-03-30T09:04:06.893Z,15.31
2019-03-30T09:05:06.892Z,15.02
2019-03-30T09:06:06.886Z,14.86
2019-03-30T09:07:06.892Z,14.68
2019-03-30T09:08:06.877Z,14.50
2019-03-30T09:09:06.877Z,14.41
2019-03-30T09:10:06.865Z,14.37
2019-03-30T09:11:06.866Z,14.35
2019-03-30T09:12:06.932Z,14.50
2019-03-30T09:13:06.876Z,14.72
2019-03-30T09:14:06.857Z,14.65
2019-03-30T09:15:06.853Z,14.59
2019-03-30T09:16:06.865Z,14.53
2019-03-30T09:17:06.852Z,14.66
2019-03-30T09:18:06.850Z,14.66
2019-03-30T09:19:06.837Z,14.69
2019-03-30T09:20:06.843Z,14.65
2019-03-30T09:21:06.870Z,14.63
2019-03-30T09:22:06.852Z,14.66
2019-03-30T09:23:06.838Z,14.77
2019-03-30T09:24:09.951Z,14.78
2019-03-30T09:25:06.841Z,14.73
2019-03-30T09:26:06.898Z,14.72
2019-03-30T09:27:06.813Z,14.66
2019-03-30T09:28:06.826Z,14.65
2019-03-30T09:29:06.805Z,14.82
2019-03-30T09:30:07.005Z,14.94
2019-03-30T09:31:07.009Z,14.94
2019-03-30T09:32:14.253Z,14.85
2019-03-30T09:33:07.001Z,14.89
2019-03-30T09:34:07.001Z,14.88
2019-03-30T09:35:06.793Z,15.02
2019-03-30T09:36:06.784Z,14.97
2019-03-30T09:37:06.782Z,15.07
2019-03-30T09:38:06.793Z,15.06
2019-03-30T09:39:06.781Z,15.10
2019-03-30T09:40:06.791Z,15.10
2019-03-30T09:41:06.972Z,15.31
2019-03-30T09:42:06.801Z,15.29
2019-03-30T09:43:06.768Z,15.25
2019-03-30T09:44:06.771Z,15.29
2019-03-30T09:45:06.778Z,15.36
2019-03-30T09:46:06.966Z,15.43
2019-03-30T09:47:06.972Z,15.39
2019-03-30T09:48:06.970Z,15.31
2019-03-30T09:49:06.747Z,15.40
2019-03-30T09:50:06.743Z,15.33
2019-03-30T09:51:06.742Z,15.27
2019-03-30T09:52:06.735Z,15.33
2019-03-30T09:53:06.751Z,15.27
2019-03-30T09:54:06.729Z,15.29
2019-03-30T09:55:06.745Z,15.25
2019-03-30T09:56:06.727Z,15.15
2019-03-30T09:57:06.947Z,15.18
2019-03-30T09:58:06.922Z,15.10
2019-03-30T09:59:06.727Z,15.14
2019-03-30T10:00:06.735Z,15.06
2019-03-30T10:01:06.928Z,15.00
2019-03-30T10:02:06.919Z,15.10
2019-03-30T10:03:06.911Z,15.14
2019-03-30T10:04:06.700Z,15.06
2019-03-30T10:05:06.692Z,15.06
2019-03-30T10:06:06.706Z,15.11
2019-03-30T10:07:06.699Z,15.07
2019-03-30T10:08:06.686Z,15.02
2019-03-30T10:09:06.681Z,15.06
2019-03-30T10:10:06.689Z,15.06
2019-03-30T10:11:06.704Z,15.14
2019-03-30T10:12:06.690Z,15.22
2019-03-30T10:13:06.683Z,15.25
2019-03-30T10:14:06.667Z,15.24
2019-03-30T10:15:06.767Z,15.15
2019-03-30T10:16:06.685Z,15.19
2019-03-30T10:17:06.680Z,15.24
2019-03-30T10:18:06.763Z,15.21
2019-03-30T10:19:06.772Z,15.22
2019-03-30T10:20:06.665Z,15.17
2019-03-30T10:21:06.648Z,15.18
2019-03-30T10:22:06.716Z,15.04
2019-03-30T10:23:06.662Z,15.19
2019-03-30T10:24:06.773Z,15.21
2019-03-30T10:25:06.635Z,15.18
2019-03-30T10:26:06.637Z,15.21
2019-03-30T10:27:06.847Z,15.31
2019-03-30T10:28:06.666Z,15.28
2019-03-30T10:29:06.644Z,15.22
2019-03-30T10:30:06.631Z,15.19
2019-03-30T10:31:06.875Z,15.28
2019-03-30T10:32:06.616Z,15.28
2019-03-30T10:33:06.617Z,15.37
2019-03-30T10:34:06.635Z,15.22
2019-03-30T10:35:06.636Z,15.28
2019-03-30T10:36:06.609Z,15.28
2019-03-30T10:37:06.610Z,15.22
2019-03-30T10:38:06.604Z,15.29
2019-03-30T10:39:06.622Z,15.37
2019-03-30T10:40:06.610Z,15.44
2019-03-30T10:41:06.600Z,15.36
2019-03-30T10:42:06.591Z,15.51
2019-03-30T10:43:06.607Z,15.54
2019-03-30T10:44:06.582Z,15.65
2019-03-30T10:45:06.593Z,15.67
2019-03-30T10:46:06.586Z,15.86
2019-03-30T10:47:06.574Z,15.67
2019-03-30T10:48:06.571Z,15.80
2019-03-30T10:49:06.574Z,15.70
2019-03-30T10:50:06.583Z,15.65
2019-03-30T10:51:06.593Z,15.58
2019-03-30T10:52:06.558Z,15.49
2019-03-30T10:53:06.559Z,15.61
2019-03-30T10:54:06.566Z,15.62
2019-03-30T10:55:06.570Z,15.62
2019-03-30T10:56:06.558Z,15.65
2019-03-30T10:57:06.563Z,15.76
2019-03-30T10:58:06.746Z,15.83
2019-03-30T10:59:06.541Z,15.86
2019-03-30T11:00:06.551Z,15.82
2019-03-30T11:01:06.564Z,15.86
2019-03-30T11:02:06.539Z,15.88
2019-03-30T11:03:06.557Z,16.00
2019-03-30T11:04:06.541Z,16.00
2019-03-30T11:05:06.530Z,16.01
2019-03-30T11:06:06.542Z,15.97
2019-03-30T11:07:06.528Z,16.02
2019-03-30T11:08:06.516Z,16.05
2019-03-30T11:09:06.517Z,16.01
2019-03-30T11:10:06.631Z,16.00
2019-03-30T11:11:06.513Z,16.05
2019-03-30T11:12:06.542Z,16.10
2019-03-30T11:13:06.502Z,16.05
2019-03-30T11:14:06.589Z,16.05
2019-03-30T11:15:06.702Z,16.09
2019-03-30T11:16:06.504Z,16.05
2019-03-30T11:17:06.490Z,16.13
2019-03-30T11:18:06.496Z,16.16
2019-03-30T11:19:06.494Z,16.09
2019-03-30T11:20:06.501Z,16.12
2019-03-30T11:21:06.498Z,16.16
2019-03-30T11:22:06.501Z,16.26
2019-03-30T11:23:06.481Z,16.28
2019-03-30T11:24:06.984Z,16.23
2019-03-30T11:25:08.471Z,16.15
2019-03-30T11:26:06.493Z,16.12
2019-03-30T11:27:06.482Z,15.98
2019-03-30T11:28:06.471Z,15.97
2019-03-30T11:29:06.664Z,15.90
2019-03-30T11:30:06.456Z,15.90
2019-03-30T11:31:06.686Z,15.98
2019-03-30T11:32:06.462Z,15.98
2019-03-30T11:33:06.451Z,15.97
2019-03-30T11:34:06.450Z,16.15
2019-03-30T11:35:06.452Z,16.17
2019-03-30T11:36:06.440Z,16.23
2019-03-30T11:37:06.446Z,16.21
2019-03-30T11:38:06.654Z,16.28
2019-03-30T11:39:06.436Z,16.16
2019-03-30T11:40:06.434Z,16.20
2019-03-30T11:41:06.431Z,16.21
2019-03-30T11:42:06.439Z,16.17
2019-03-30T11:43:06.431Z,16.21
2019-03-30T11:44:06.490Z,16.29
2019-03-30T11:45:06.427Z,16.29
2019-03-30T11:46:06.648Z,16.28
2019-03-30T11:47:06.630Z,16.28
2019-03-30T11:48:06.426Z,16.31
2019-03-30T11:49:06.426Z,16.51
2019-03-30T11:50:06.428Z,16.56
2019-03-30T11:51:06.412Z,16.68
2019-03-30T11:52:06.413Z,16.71
2019-03-30T11:53:06.628Z,16.79
2019-03-30T11:54:06.432Z,16.91
2019-03-30T11:55:20.523Z,16.99
2019-03-30T11:56:06.423Z,17.12
2019-03-30T11:57:06.615Z,17.14
2019-03-30T11:58:06.396Z,17.11
2019-03-30T11:59:06.388Z,17.08
2019-03-30T12:00:06.391Z,16.84
2019-03-30T12:01:06.418Z,16.86
2019-03-30T12:02:06.391Z,16.78
2019-03-30T12:03:06.394Z,16.72
2019-03-30T12:04:06.394Z,16.60
2019-03-30T12:05:06.400Z,16.57
2019-03-30T12:06:06.591Z,16.56
2019-03-30T12:07:06.390Z,16.64
2019-03-30T12:08:06.578Z,16.58
2019-03-30T12:09:06.368Z,16.56
2019-03-30T12:10:06.378Z,16.64
2019-03-30T12:11:06.367Z,16.57
2019-03-30T12:12:06.358Z,16.58
2019-03-30T12:13:06.384Z,16.53
2019-03-30T12:14:06.376Z,16.53
2019-03-30T12:15:06.371Z,16.47
2019-03-30T12:16:06.367Z,16.43
2019-03-30T12:17:06.557Z,16.43
2019-03-30T12:18:06.362Z,16.49
2019-03-30T12:19:06.348Z,16.36
2019-03-30T12:20:06.438Z,16.47
2019-03-30T12:21:06.351Z,16.38
2019-03-30T12:22:06.563Z,16.41
2019-03-30T12:23:06.351Z,16.36
2019-03-30T12:24:06.483Z,16.39
2019-03-30T12:25:06.355Z,16.39
2019-03-30T12:26:06.339Z,16.49
2019-03-30T12:27:06.340Z,16.57
2019-03-30T12:28:06.348Z,16.54
2019-03-30T12:29:06.406Z,16.53
2019-03-30T12:30:06.323Z,16.47
2019-03-30T12:31:06.342Z,16.43
2019-03-30T12:32:06.321Z,16.43
2019-03-30T12:33:06.315Z,16.50
2019-03-30T12:34:06.318Z,16.46
2019-03-30T12:35:06.321Z,16.50
2019-03-30T12:36:06.307Z,16.38
2019-03-30T12:37:06.306Z,16.46
2019-03-30T12:38:06.305Z,16.38
2019-03-30T12:39:06.503Z,16.46
2019-03-30T12:40:06.517Z,16.36
2019-03-30T12:41:06.301Z,16.38
2019-03-30T12:42:06.505Z,16.29
2019-03-30T12:43:06.503Z,16.42
2019-03-30T12:44:06.495Z,16.36
2019-03-30T12:45:06.288Z,16.43
2019-03-30T12:46:06.288Z,16.46
2019-03-30T12:47:06.492Z,16.38
2019-03-30T12:48:06.292Z,16.35
2019-03-30T12:49:06.306Z,16.51
2019-03-30T12:50:06.297Z,16.50
2019-03-30T12:51:06.297Z,16.50
2019-03-30T12:52:06.290Z,16.56
2019-03-30T12:53:06.498Z,16.60
2019-03-30T12:54:06.273Z,16.58
2019-03-30T12:55:06.467Z,16.56
2019-03-30T12:56:08.817Z,16.51
2019-03-30T12:57:06.262Z,16.56
2019-03-30T12:58:06.259Z,16.50
2019-03-30T12:59:06.474Z,16.65
2019-03-30T13:00:06.260Z,16.60
2019-03-30T13:01:06.256Z,16.61
2019-03-30T13:02:06.455Z,16.64
2019-03-30T13:03:06.450Z,16.68
2019-03-30T13:04:06.251Z,16.72
2019-03-30T13:05:07.611Z,16.72
2019-03-30T13:06:06.239Z,16.78